sensor_id;sensor_type;location;lat;lon;timestamp;pressure;altitude;pressure_sealevel;temperature;humidity
84775;BME280;75005;50.966;11.344;2024-02-26T00:01:07;97841.28;;;-0.73;91.30
84775;BME280;75005;50.966;11.344;2024-02-26T00:03:32;97829.25;;;-0.80;91.03
84775;BME280;75005;50.966;11.344;2024-02-26T00:06:01;97830.63;;;-0.86;91.48
84775;BME280;75005;50.966;11.344;2024-02-26T00:08:27;97828.88;;;-0.85;90.92
84775;BME280;75005;50.966;11.344;2024-02-26T00:10:53;97828.88;;;-0.85;91.75
84775;BME280;75005;50.966;11.344;2024-02-26T00:13:19;97829.16;;;-0.88;91.11
84775;BME280;75005;50.966;11.344;2024-02-26T00:15:45;97823.53;;;-0.92;90.99
84775;BME280;75005;50.966;11.344;2024-02-26T00:18:11;97825.38;;;-0.84;91.39
84775;BME280;75005;50.966;11.344;2024-02-26T00:20:36;97825.16;;;-0.91;91.36
84775;BME280;75005;50.966;11.344;2024-02-26T00:23:02;97827.56;;;-0.89;91.10
84775;BME280;75005;50.966;11.344;2024-02-26T00:25:27;97824.16;;;-0.80;90.92
84775;BME280;75005;50.966;11.344;2024-02-26T00:27:53;97820.56;;;-0.87;90.57
84775;BME280;75005;50.966;11.344;2024-02-26T00:30:18;97802.59;;;-0.95;91.06
84775;BME280;75005;50.966;11.344;2024-02-26T00:32:43;97813.03;;;-0.89;90.33
84775;BME280;75005;50.966;11.344;2024-02-26T00:37:35;97802.22;;;-1.01;90.99
84775;BME280;75005;50.966;11.344;2024-02-26T00:40:00;97799.53;;;-0.99;90.84
84775;BME280;75005;50.966;11.344;2024-02-26T00:42:26;97789.97;;;-0.97;90.88
84775;BME280;75005;50.966;11.344;2024-02-26T00:44:51;97782.72;;;-1.02;90.95
84775;BME280;75005;50.966;11.344;2024-02-26T00:47:17;97796.81;;;-0.97;90.96
84775;BME280;75005;50.966;11.344;2024-02-26T00:49:42;97784.59;;;-0.94;90.39
84775;BME280;75005;50.966;11.344;2024-02-26T00:52:08;97775.97;;;-0.93;90.20
84775;BME280;75005;50.966;11.344;2024-02-26T00:54:33;97778.09;;;-0.88;90.55
84775;BME280;75005;50.966;11.344;2024-02-26T00:56:58;97794.66;;;-0.92;89.91
84775;BME280;75005;50.966;11.344;2024-02-26T00:59:24;97779.75;;;-0.97;90.33
84775;BME280;75005;50.966;11.344;2024-02-26T01:01:49;97775.06;;;-1.02;90.54
84775;BME280;75005;50.966;11.344;2024-02-26T01:04:14;97777.34;;;-0.98;91.14
84775;BME280;75005;50.966;11.344;2024-02-26T01:06:40;97776.81;;;-1.02;91.03
84775;BME280;75005;50.966;11.344;2024-02-26T01:09:05;97780.84;;;-0.99;90.41
84775;BME280;75005;50.966;11.344;2024-02-26T01:11:31;97785.50;;;-1.13;90.27
84775;BME280;75005;50.966;11.344;2024-02-26T01:13:56;97780.22;;;-1.11;90.88
84775;BME280;75005;50.966;11.344;2024-02-26T01:16:23;97781.03;;;-1.11;90.58
84775;BME280;75005;50.966;11.344;2024-02-26T01:18:48;97782.50;;;-1.08;90.15
84775;BME280;75005;50.966;11.344;2024-02-26T01:21:14;97777.41;;;-1.08;90.03
84775;BME280;75005;50.966;11.344;2024-02-26T01:23:39;97779.81;;;-1.07;90.54
84775;BME280;75005;50.966;11.344;2024-02-26T01:26:05;97781.41;;;-1.06;90.61
84775;BME280;75005;50.966;11.344;2024-02-26T01:28:30;97784.63;;;-1.04;89.77
84775;BME280;75005;50.966;11.344;2024-02-26T01:30:56;97780.09;;;-1.10;90.76
84775;BME280;75005;50.966;11.344;2024-02-26T01:33:21;97785.72;;;-1.06;90.65
84775;BME280;75005;50.966;11.344;2024-02-26T01:35:47;97776.53;;;-1.17;90.50
84775;BME280;75005;50.966;11.344;2024-02-26T01:38:12;97769.66;;;-1.16;90.69
84775;BME280;75005;50.966;11.344;2024-02-26T01:40:38;97775.72;;;-1.17;90.74
84775;BME280;75005;50.966;11.344;2024-02-26T01:43:03;97771.47;;;-1.26;90.90
84775;BME280;75005;50.966;11.344;2024-02-26T01:45:29;97762.47;;;-1.30;91.11
84775;BME280;75005;50.966;11.344;2024-02-26T01:47:55;97771.75;;;-1.29;90.72
84775;BME280;75005;50.966;11.344;2024-02-26T01:50:21;97773.47;;;-1.30;90.83
84775;BME280;75005;50.966;11.344;2024-02-26T01:52:50;97765.44;;;-1.35;91.52
84775;BME280;75005;50.966;11.344;2024-02-26T01:55:18;97764.38;;;-1.32;91.08
84775;BME280;75005;50.966;11.344;2024-02-26T01:57:45;97763.69;;;-1.35;91.46
84775;BME280;75005;50.966;11.344;2024-02-26T02:00:11;97768.00;;;-1.35;90.84
84775;BME280;75005;50.966;11.344;2024-02-26T02:02:38;97770.78;;;-1.28;91.38
84775;BME280;75005;50.966;11.344;2024-02-26T02:05:05;97763.81;;;-1.26;90.87
84775;BME280;75005;50.966;11.344;2024-02-26T02:07:31;97764.59;;;-1.26;91.02
84775;BME280;75005;50.966;11.344;2024-02-26T02:09:57;97769.44;;;-1.23;90.34
84775;BME280;75005;50.966;11.344;2024-02-26T02:12:23;97774.25;;;-1.20;89.87
84775;BME280;75005;50.966;11.344;2024-02-26T02:14:48;97779.81;;;-1.34;89.93
84775;BME280;75005;50.966;11.344;2024-02-26T02:17:14;97785.19;;;-1.37;91.26
84775;BME280;75005;50.966;11.344;2024-02-26T02:19:39;97784.91;;;-1.34;90.98
84775;BME280;75005;50.966;11.344;2024-02-26T02:22:05;97778.34;;;-1.37;91.84
84775;BME280;75005;50.966;11.344;2024-02-26T02:24:30;97788.50;;;-1.27;90.90
84775;BME280;75005;50.966;11.344;2024-02-26T02:26:56;97790.41;;;-1.29;91.36
84775;BME280;75005;50.966;11.344;2024-02-26T02:29:21;97797.75;;;-1.16;91.58
84775;BME280;75005;50.966;11.344;2024-02-26T02:31:47;97795.47;;;-1.19;90.92
84775;BME280;75005;50.966;11.344;2024-02-26T02:34:12;97782.31;;;-1.24;91.05
84775;BME280;75005;50.966;11.344;2024-02-26T02:36:52;97778.41;;;-1.19;90.87
84775;BME280;75005;50.966;11.344;2024-02-26T02:39:17;97777.75;;;-1.21;91.19
84775;BME280;75005;50.966;11.344;2024-02-26T02:41:43;97787.66;;;-1.18;90.61
84775;BME280;75005;50.966;11.344;2024-02-26T02:44:09;97779.63;;;-1.23;90.49
84775;BME280;75005;50.966;11.344;2024-02-26T02:46:34;97787.84;;;-1.29;90.57
84775;BME280;75005;50.966;11.344;2024-02-26T02:49:00;97788.13;;;-1.32;90.99
84775;BME280;75005;50.966;11.344;2024-02-26T02:51:26;97786.25;;;-1.30;90.81
84775;BME280;75005;50.966;11.344;2024-02-26T02:53:51;97782.88;;;-1.30;90.86
84775;BME280;75005;50.966;11.344;2024-02-26T02:56:17;97788.78;;;-1.30;91.02
84775;BME280;75005;50.966;11.344;2024-02-26T02:58:42;97779.00;;;-1.35;90.38
84775;BME280;75005;50.966;11.344;2024-02-26T03:01:08;97792.66;;;-1.26;90.84
84775;BME280;75005;50.966;11.344;2024-02-26T03:03:33;97792.81;;;-1.27;90.88
84775;BME280;75005;50.966;11.344;2024-02-26T03:05:58;97783.59;;;-1.38;91.50
84775;BME280;75005;50.966;11.344;2024-02-26T03:08:24;97796.34;;;-1.38;90.96
84775;BME280;75005;50.966;11.344;2024-02-26T03:10:51;97786.63;;;-1.52;91.35
84775;BME280;75005;50.966;11.344;2024-02-26T03:13:16;97793.88;;;-1.57;91.21
84775;BME280;75005;50.966;11.344;2024-02-26T03:15:42;97794.00;;;-1.49;91.57
84775;BME280;75005;50.966;11.344;2024-02-26T03:18:07;97790.66;;;-1.59;91.42
84775;BME280;75005;50.966;11.344;2024-02-26T03:20:33;97790.53;;;-1.58;91.71
84775;BME280;75005;50.966;11.344;2024-02-26T03:22:58;97791.03;;;-1.54;90.99
84775;BME280;75005;50.966;11.344;2024-02-26T03:25:24;97794.78;;;-1.49;90.96
84775;BME280;75005;50.966;11.344;2024-02-26T03:27:49;97799.09;;;-1.49;90.85
84775;BME280;75005;50.966;11.344;2024-02-26T03:30:15;97800.16;;;-1.52;91.04
84775;BME280;75005;50.966;11.344;2024-02-26T03:32:41;97813.59;;;-1.50;90.57
84775;BME280;75005;50.966;11.344;2024-02-26T03:35:06;97802.59;;;-1.50;90.79
84775;BME280;75005;50.966;11.344;2024-02-26T03:37:33;97801.41;;;-1.28;90.17
84775;BME280;75005;50.966;11.344;2024-02-26T03:39:58;97797.94;;;-1.37;90.39
84775;BME280;75005;50.966;11.344;2024-02-26T03:42:24;97799.44;;;-1.44;90.60
84775;BME280;75005;50.966;11.344;2024-02-26T03:44:49;97801.16;;;-1.35;89.78
84775;BME280;75005;50.966;11.344;2024-02-26T03:47:16;97805.47;;;-1.36;90.69
84775;BME280;75005;50.966;11.344;2024-02-26T03:49:41;97791.78;;;-1.44;90.44
84775;BME280;75005;50.966;11.344;2024-02-26T03:52:07;97791.47;;;-1.31;90.56
84775;BME280;75005;50.966;11.344;2024-02-26T03:54:32;97802.53;;;-1.41;90.12
84775;BME280;75005;50.966;11.344;2024-02-26T03:56:57;97796.28;;;-1.56;90.37
84775;BME280;75005;50.966;11.344;2024-02-26T03:59:23;97796.97;;;-1.63;91.28
84775;BME280;75005;50.966;11.344;2024-02-26T04:01:50;97802.63;;;-1.70;91.58
84775;BME280;75005;50.966;11.344;2024-02-26T04:04:16;97793.22;;;-1.69;91.54
84775;BME280;75005;50.966;11.344;2024-02-26T04:06:48;97799.53;;;-1.73;91.36
84775;BME280;75005;50.966;11.344;2024-02-26T04:09:16;97790.16;;;-1.73;91.02
84775;BME280;75005;50.966;11.344;2024-02-26T04:11:41;97796.69;;;-1.60;91.68
84775;BME280;75005;50.966;11.344;2024-02-26T04:14:08;97789.56;;;-1.57;90.26
84775;BME280;75005;50.966;11.344;2024-02-26T04:16:34;97797.38;;;-1.58;90.54
84775;BME280;75005;50.966;11.344;2024-02-26T04:19:01;97792.41;;;-1.60;90.56
84775;BME280;75005;50.966;11.344;2024-02-26T04:21:26;97800.53;;;-1.47;90.63
84775;BME280;75005;50.966;11.344;2024-02-26T04:23:51;97794.94;;;-1.50;91.00
84775;BME280;75005;50.966;11.344;2024-02-26T04:26:20;97802.81;;;-1.44;90.80
84775;BME280;75005;50.966;11.344;2024-02-26T04:28:46;97792.00;;;-1.28;89.92
84775;BME280;75005;50.966;11.344;2024-02-26T04:31:11;97793.75;;;-1.28;90.48
84775;BME280;75005;50.966;11.344;2024-02-26T04:33:36;97793.91;;;-1.30;90.57
84775;BME280;75005;50.966;11.344;2024-02-26T04:36:04;97780.50;;;-1.42;90.43
84775;BME280;75005;50.966;11.344;2024-02-26T04:38:29;97789.38;;;-1.46;90.47
84775;BME280;75005;50.966;11.344;2024-02-26T04:40:55;97787.13;;;-1.49;91.60
84775;BME280;75005;50.966;11.344;2024-02-26T04:43:20;97796.63;;;-1.41;90.53
84775;BME280;75005;50.966;11.344;2024-02-26T04:45:45;97802.28;;;-1.47;90.68
84775;BME280;75005;50.966;11.344;2024-02-26T04:48:11;97804.19;;;-1.49;90.69
84775;BME280;75005;50.966;11.344;2024-02-26T04:50:36;97806.00;;;-1.42;90.85
84775;BME280;75005;50.966;11.344;2024-02-26T04:53:02;97808.16;;;-1.37;90.24
84775;BME280;75005;50.966;11.344;2024-02-26T04:55:27;97801.16;;;-1.35;90.60
84775;BME280;75005;50.966;11.344;2024-02-26T04:57:52;97805.72;;;-1.29;90.81
84775;BME280;75005;50.966;11.344;2024-02-26T05:00:18;97802.72;;;-1.15;89.42
84775;BME280;75005;50.966;11.344;2024-02-26T05:02:43;97795.19;;;-1.16;89.68
84775;BME280;75005;50.966;11.344;2024-02-26T05:05:08;97799.22;;;-1.14;89.59
84775;BME280;75005;50.966;11.344;2024-02-26T05:07:39;97794.94;;;-1.23;90.67
84775;BME280;75005;50.966;11.344;2024-02-26T05:10:05;97794.13;;;-1.23;90.96
84775;BME280;75005;50.966;11.344;2024-02-26T05:12:30;97797.22;;;-1.20;90.01
84775;BME280;75005;50.966;11.344;2024-02-26T05:14:56;97795.06;;;-1.15;89.80
84775;BME280;75005;50.966;11.344;2024-02-26T05:17:21;97796.56;;;-1.22;89.33
84775;BME280;75005;50.966;11.344;2024-02-26T05:19:46;97787.28;;;-1.23;90.61
84775;BME280;75005;50.966;11.344;2024-02-26T05:22:12;97790.41;;;-1.02;89.40
84775;BME280;75005;50.966;11.344;2024-02-26T05:24:38;97796.63;;;-0.86;88.55
84775;BME280;75005;50.966;11.344;2024-02-26T05:27:04;97790.25;;;-1.00;88.58
84775;BME280;75005;50.966;11.344;2024-02-26T05:29:29;97795.75;;;-1.22;89.98
84775;BME280;75005;50.966;11.344;2024-02-26T05:31:55;97798.72;;;-1.27;90.12
84775;BME280;75005;50.966;11.344;2024-02-26T05:34:20;97804.44;;;-1.15;90.35
84775;BME280;75005;50.966;11.344;2024-02-26T05:36:45;97803.63;;;-0.88;88.80
84775;BME280;75005;50.966;11.344;2024-02-26T05:39:11;97792.28;;;-0.76;87.70
84775;BME280;75005;50.966;11.344;2024-02-26T05:41:37;97804.72;;;-0.91;88.02
84775;BME280;75005;50.966;11.344;2024-02-26T05:44:03;97800.75;;;-1.03;89.16
84775;BME280;75005;50.966;11.344;2024-02-26T05:46:28;97804.53;;;-1.07;89.71
84775;BME280;75005;50.966;11.344;2024-02-26T05:48:54;97800.47;;;-1.00;89.19
84775;BME280;75005;50.966;11.344;2024-02-26T05:51:19;97806.84;;;-0.86;88.22
84775;BME280;75005;50.966;11.344;2024-02-26T05:53:45;97808.75;;;-0.88;89.94
84775;BME280;75005;50.966;11.344;2024-02-26T05:56:12;97811.97;;;-0.86;89.91
84775;BME280;75005;50.966;11.344;2024-02-26T05:58:37;97801.03;;;-0.61;88.18
84775;BME280;75005;50.966;11.344;2024-02-26T06:01:03;97812.84;;;-0.78;88.87
84775;BME280;75005;50.966;11.344;2024-02-26T06:03:29;97817.03;;;-0.59;88.25
84775;BME280;75005;50.966;11.344;2024-02-26T06:05:54;97814.91;;;-0.63;88.53
84775;BME280;75005;50.966;11.344;2024-02-26T06:08:20;97829.47;;;-0.74;90.17
84775;BME280;75005;50.966;11.344;2024-02-26T06:10:45;97826.78;;;-0.72;89.48
84775;BME280;75005;50.966;11.344;2024-02-26T06:13:10;97833.53;;;-0.53;88.90
84775;BME280;75005;50.966;11.344;2024-02-26T06:15:36;97828.94;;;-0.50;89.39
84775;BME280;75005;50.966;11.344;2024-02-26T06:18:02;97836.09;;;-0.53;89.47
84775;BME280;75005;50.966;11.344;2024-02-26T06:20:27;97837.31;;;-0.57;89.34
84775;BME280;75005;50.966;11.344;2024-02-26T06:22:53;97837.03;;;-0.54;89.11
84775;BME280;75005;50.966;11.344;2024-02-26T06:25:18;97839.34;;;-0.61;90.26
84775;BME280;75005;50.966;11.344;2024-02-26T06:27:43;97832.88;;;-0.55;90.32
84775;BME280;75005;50.966;11.344;2024-02-26T06:30:09;97834.94;;;-0.41;88.66
84775;BME280;75005;50.966;11.344;2024-02-26T06:32:37;97837.41;;;-0.31;88.30
84775;BME280;75005;50.966;11.344;2024-02-26T06:35:02;97831.19;;;-0.29;88.38
84775;BME280;75005;50.966;11.344;2024-02-26T06:37:32;97839.97;;;-0.14;87.88
84775;BME280;75005;50.966;11.344;2024-02-26T06:39:59;97838.34;;;-0.15;87.62
84775;BME280;75005;50.966;11.344;2024-02-26T06:42:24;97833.91;;;-0.13;87.70
84775;BME280;75005;50.966;11.344;2024-02-26T06:44:50;97842.41;;;0.14;86.97
84775;BME280;75005;50.966;11.344;2024-02-26T06:47:15;97846.44;;;0.16;86.34
84775;BME280;75005;50.966;11.344;2024-02-26T06:49:41;97858.19;;;0.27;86.79
84775;BME280;75005;50.966;11.344;2024-02-26T06:52:06;97851.53;;;0.16;86.47
84775;BME280;75005;50.966;11.344;2024-02-26T06:54:32;97859.00;;;0.27;86.12
84775;BME280;75005;50.966;11.344;2024-02-26T06:56:57;97858.69;;;0.30;86.73
84775;BME280;75005;50.966;11.344;2024-02-26T06:59:23;97864.63;;;0.13;86.81
84775;BME280;75005;50.966;11.344;2024-02-26T07:01:49;97869.81;;;0.21;87.31
84775;BME280;75005;50.966;11.344;2024-02-26T07:04:14;97871.78;;;0.10;87.07
84775;BME280;75005;50.966;11.344;2024-02-26T07:06:40;97872.59;;;0.28;87.29
84775;BME280;75005;50.966;11.344;2024-02-26T07:09:06;97877.78;;;0.36;86.89
84775;BME280;75005;50.966;11.344;2024-02-26T07:11:32;97872.47;;;0.38;87.21
84775;BME280;75005;50.966;11.344;2024-02-26T07:13:57;97868.88;;;0.48;86.84
84775;BME280;75005;50.966;11.344;2024-02-26T07:16:23;97872.94;;;0.59;85.36
84775;BME280;75005;50.966;11.344;2024-02-26T07:18:48;97866.81;;;0.78;84.75
84775;BME280;75005;50.966;11.344;2024-02-26T07:21:14;97877.16;;;0.94;83.67
84775;BME280;75005;50.966;11.344;2024-02-26T07:23:39;97887.25;;;0.95;83.66
84775;BME280;75005;50.966;11.344;2024-02-26T07:26:04;97875.03;;;0.89;84.48
84775;BME280;75005;50.966;11.344;2024-02-26T07:28:30;97865.75;;;0.88;84.74
84775;BME280;75005;50.966;11.344;2024-02-26T07:30:56;97870.91;;;0.96;84.17
84775;BME280;75005;50.966;11.344;2024-02-26T07:33:21;97872.88;;;1.03;85.33
84775;BME280;75005;50.966;11.344;2024-02-26T07:35:47;97870.63;;;0.99;86.34
84775;BME280;75005;50.966;11.344;2024-02-26T07:38:13;97872.22;;;1.00;87.08
84775;BME280;75005;50.966;11.344;2024-02-26T07:40:39;97877.34;;;1.00;87.43
84775;BME280;75005;50.966;11.344;2024-02-26T07:43:04;97885.38;;;1.06;87.33
84775;BME280;75005;50.966;11.344;2024-02-26T07:45:30;97890.50;;;1.06;87.72
84775;BME280;75005;50.966;11.344;2024-02-26T07:47:55;97879.94;;;1.09;87.53
84775;BME280;75005;50.966;11.344;2024-02-26T07:50:20;97884.84;;;1.36;86.92
84775;BME280;75005;50.966;11.344;2024-02-26T07:52:46;97882.16;;;1.54;85.39
84775;BME280;75005;50.966;11.344;2024-02-26T07:55:11;97894.50;;;1.50;86.99
84775;BME280;75005;50.966;11.344;2024-02-26T07:57:37;97900.00;;;1.63;86.04
84775;BME280;75005;50.966;11.344;2024-02-26T08:00:04;97894.88;;;1.72;86.32
84775;BME280;75005;50.966;11.344;2024-02-26T08:02:32;97899.44;;;2.10;84.21
84775;BME280;75005;50.966;11.344;2024-02-26T08:04:59;97915.16;;;2.23;83.40
84775;BME280;75005;50.966;11.344;2024-02-26T08:07:24;97919.66;;;2.21;83.36
84775;BME280;75005;50.966;11.344;2024-02-26T08:09:50;97923.81;;;2.30;84.21
84775;BME280;75005;50.966;11.344;2024-02-26T08:12:15;97917.06;;;2.29;83.92
84775;BME280;75005;50.966;11.344;2024-02-26T08:14:41;97923.16;;;2.28;84.00
84775;BME280;75005;50.966;11.344;2024-02-26T08:17:09;97925.59;;;2.38;84.11
84775;BME280;75005;50.966;11.344;2024-02-26T08:19:34;97932.81;;;2.43;84.15
84775;BME280;75005;50.966;11.344;2024-02-26T08:22:01;97926.41;;;2.47;83.38
84775;BME280;75005;50.966;11.344;2024-02-26T08:24:26;97931.22;;;2.58;84.08
84775;BME280;75005;50.966;11.344;2024-02-26T08:26:52;97925.09;;;2.67;83.69
84775;BME280;75005;50.966;11.344;2024-02-26T08:29:17;97925.72;;;2.69;83.71
84775;BME280;75005;50.966;11.344;2024-02-26T08:31:42;97924.75;;;2.70;83.15
84775;BME280;75005;50.966;11.344;2024-02-26T08:34:08;97931.03;;;2.67;83.82
84775;BME280;75005;50.966;11.344;2024-02-26T08:36:34;97923.47;;;2.82;83.26
84775;BME280;75005;50.966;11.344;2024-02-26T08:39:00;97927.81;;;2.82;84.00
84775;BME280;75005;50.966;11.344;2024-02-26T08:41:25;97928.63;;;2.82;84.36
84775;BME280;75005;50.966;11.344;2024-02-26T08:43:51;97925.66;;;3.10;83.23
84775;BME280;75005;50.966;11.344;2024-02-26T08:46:17;97930.34;;;3.53;81.89
84775;BME280;75005;50.966;11.344;2024-02-26T08:48:42;97916.13;;;3.65;81.49
84775;BME280;75005;50.966;11.344;2024-02-26T08:51:08;97918.69;;;3.96;82.52
84775;BME280;75005;50.966;11.344;2024-02-26T08:53:35;97918.53;;;4.21;84.10
84775;BME280;75005;50.966;11.344;2024-02-26T08:56:00;97914.69;;;4.17;81.18
84775;BME280;75005;50.966;11.344;2024-02-26T08:58:27;97917.34;;;4.84;82.07
84775;BME280;75005;50.966;11.344;2024-02-26T09:00:53;97913.19;;;5.27;77.79
84775;BME280;75005;50.966;11.344;2024-02-26T09:03:18;97914.50;;;4.93;76.05
84775;BME280;75005;50.966;11.344;2024-02-26T09:05:44;97918.16;;;4.84;76.92
84775;BME280;75005;50.966;11.344;2024-02-26T09:08:09;97924.47;;;4.96;77.05
84775;BME280;75005;50.966;11.344;2024-02-26T09:10:35;97917.56;;;4.59;78.66
84775;BME280;75005;50.966;11.344;2024-02-26T09:13:00;97911.22;;;4.47;79.15
84775;BME280;75005;50.966;11.344;2024-02-26T09:15:26;97902.97;;;4.52;78.87
84775;BME280;75005;50.966;11.344;2024-02-26T09:17:51;97905.28;;;4.47;79.91
84775;BME280;75005;50.966;11.344;2024-02-26T09:20:17;97915.16;;;4.43;80.83
84775;BME280;75005;50.966;11.344;2024-02-26T09:22:46;97910.19;;;4.42;81.42
84775;BME280;75005;50.966;11.344;2024-02-26T09:25:12;97911.41;;;4.46;80.30
84775;BME280;75005;50.966;11.344;2024-02-26T09:27:38;97919.94;;;4.46;81.20
84775;BME280;75005;50.966;11.344;2024-02-26T09:30:04;97910.81;;;4.58;81.39
84775;BME280;75005;50.966;11.344;2024-02-26T09:32:29;97916.72;;;4.67;80.97
84775;BME280;75005;50.966;11.344;2024-02-26T09:34:55;97919.22;;;4.75;80.48
84775;BME280;75005;50.966;11.344;2024-02-26T09:37:21;97912.78;;;4.56;81.26
84775;BME280;75005;50.966;11.344;2024-02-26T09:39:46;97916.94;;;4.57;81.33
84775;BME280;75005;50.966;11.344;2024-02-26T09:42:12;97914.81;;;4.61;81.94
84775;BME280;75005;50.966;11.344;2024-02-26T09:44:40;97897.03;;;4.51;82.66
84775;BME280;75005;50.966;11.344;2024-02-26T09:47:09;97901.16;;;4.60;82.51
84775;BME280;75005;50.966;11.344;2024-02-26T09:49:36;97909.09;;;4.74;82.31
84775;BME280;75005;50.966;11.344;2024-02-26T09:52:04;97910.88;;;5.02;81.49
84775;BME280;75005;50.966;11.344;2024-02-26T09:54:30;97905.56;;;5.19;80.08
84775;BME280;75005;50.966;11.344;2024-02-26T09:56:59;97918.69;;;4.94;81.87
84775;BME280;75005;50.966;11.344;2024-02-26T09:59:27;97908.94;;;5.04;81.59
84775;BME280;75005;50.966;11.344;2024-02-26T10:01:53;97920.03;;;5.05;81.59
84775;BME280;75005;50.966;11.344;2024-02-26T10:04:20;97916.03;;;5.32;80.51
84775;BME280;75005;50.966;11.344;2024-02-26T10:06:45;97910.00;;;5.25;80.73
84775;BME280;75005;50.966;11.344;2024-02-26T10:09:12;97917.28;;;5.21;81.59
84775;BME280;75005;50.966;11.344;2024-02-26T10:11:38;97914.63;;;5.44;80.31
84775;BME280;75005;50.966;11.344;2024-02-26T10:14:05;97908.31;;;5.83;79.55
84775;BME280;75005;50.966;11.344;2024-02-26T10:16:31;97905.66;;;6.12;78.45
84775;BME280;75005;50.966;11.344;2024-02-26T10:18:58;97907.31;;;6.41;76.92
84775;BME280;75005;50.966;11.344;2024-02-26T10:21:23;97921.88;;;6.49;76.78
84775;BME280;75005;50.966;11.344;2024-02-26T10:23:49;97926.31;;;6.33;76.71
84775;BME280;75005;50.966;11.344;2024-02-26T10:26:19;97929.03;;;6.25;77.99
84775;BME280;75005;50.966;11.344;2024-02-26T10:28:45;97936.34;;;6.22;78.27
84775;BME280;75005;50.966;11.344;2024-02-26T10:31:11;97942.31;;;6.44;77.48
84775;BME280;75005;50.966;11.344;2024-02-26T10:33:39;97936.16;;;6.66;75.56
84775;BME280;75005;50.966;11.344;2024-02-26T10:36:05;97935.56;;;6.70;76.10
84775;BME280;75005;50.966;11.344;2024-02-26T10:38:36;97945.91;;;6.70;76.34
84775;BME280;75005;50.966;11.344;2024-02-26T10:41:13;97949.66;;;6.89;75.88
84775;BME280;75005;50.966;11.344;2024-02-26T10:43:38;97943.69;;;6.89;75.38
84775;BME280;75005;50.966;11.344;2024-02-26T10:46:04;97941.69;;;6.63;76.89
84775;BME280;75005;50.966;11.344;2024-02-26T10:48:30;97931.69;;;6.81;75.87
84775;BME280;75005;50.966;11.344;2024-02-26T10:50:55;97936.25;;;6.79;75.63
84775;BME280;75005;50.966;11.344;2024-02-26T10:53:23;97937.84;;;6.80;75.10
84775;BME280;75005;50.966;11.344;2024-02-26T10:56:03;97946.09;;;6.69;77.41
84775;BME280;75005;50.966;11.344;2024-02-26T10:58:31;97944.34;;;6.97;75.83
84775;BME280;75005;50.966;11.344;2024-02-26T11:00:57;97939.69;;;7.21;74.43
84775;BME280;75005;50.966;11.344;2024-02-26T11:03:24;97944.63;;;7.50;72.50
84775;BME280;75005;50.966;11.344;2024-02-26T11:05:50;97955.34;;;7.41;73.43
84775;BME280;75005;50.966;11.344;2024-02-26T11:08:20;97950.94;;;7.34;73.55
84775;BME280;75005;50.966;11.344;2024-02-26T11:10:52;97951.38;;;7.45;72.83
84775;BME280;75005;50.966;11.344;2024-02-26T11:13:19;97948.22;;;7.49;73.23
84775;BME280;75005;50.966;11.344;2024-02-26T11:15:50;97951.91;;;7.68;73.33
84775;BME280;75005;50.966;11.344;2024-02-26T11:18:19;97950.44;;;8.07;71.48
84775;BME280;75005;50.966;11.344;2024-02-26T11:20:45;97964.47;;;7.71;73.42
84775;BME280;75005;50.966;11.344;2024-02-26T11:23:11;97960.59;;;7.54;72.86
84775;BME280;75005;50.966;11.344;2024-02-26T11:25:37;97953.66;;;7.26;74.88
84775;BME280;75005;50.966;11.344;2024-02-26T11:28:08;97946.19;;;7.38;74.40
84775;BME280;75005;50.966;11.344;2024-02-26T11:30:40;97944.63;;;7.50;73.82
84775;BME280;75005;50.966;11.344;2024-02-26T11:33:08;97952.16;;;7.38;74.46
84775;BME280;75005;50.966;11.344;2024-02-26T11:35:38;97953.81;;;7.18;75.26
84775;BME280;75005;50.966;11.344;2024-02-26T11:38:04;97955.00;;;7.16;75.25
84775;BME280;75005;50.966;11.344;2024-02-26T11:40:32;97954.94;;;7.37;74.03
84775;BME280;75005;50.966;11.344;2024-02-26T11:42:57;97960.63;;;7.60;73.19
84775;BME280;75005;50.966;11.344;2024-02-26T11:48:21;97967.88;;;7.44;74.07
84775;BME280;75005;50.966;11.344;2024-02-26T11:50:48;97962.19;;;7.55;73.62
84775;BME280;75005;50.966;11.344;2024-02-26T11:53:32;97953.53;;;7.34;74.18
84775;BME280;75005;50.966;11.344;2024-02-26T11:59:09;97970.94;;;7.19;75.47
84775;BME280;75005;50.966;11.344;2024-02-26T12:01:38;97975.88;;;7.49;75.27
84775;BME280;75005;50.966;11.344;2024-02-26T12:04:05;97980.44;;;7.47;73.77
84775;BME280;75005;50.966;11.344;2024-02-26T12:06:31;97984.00;;;7.39;74.50
84775;BME280;75005;50.966;11.344;2024-02-26T12:09:05;97979.53;;;7.61;73.05
84775;BME280;75005;50.966;11.344;2024-02-26T12:11:30;97979.81;;;7.72;73.22
84775;BME280;75005;50.966;11.344;2024-02-26T12:13:56;97994.69;;;8.18;72.37
84775;BME280;75005;50.966;11.344;2024-02-26T12:16:38;97985.16;;;8.25;71.22
84775;BME280;75005;50.966;11.344;2024-02-26T12:19:05;97986.00;;;8.32;71.28
84775;BME280;75005;50.966;11.344;2024-02-26T12:21:33;97987.34;;;8.28;71.31
84775;BME280;75005;50.966;11.344;2024-02-26T12:24:13;97989.22;;;8.48;70.20
84775;BME280;75005;50.966;11.344;2024-02-26T12:26:40;97983.34;;;8.26;70.93
84775;BME280;75005;50.966;11.344;2024-02-26T12:29:06;97991.22;;;8.39;71.62
84775;BME280;75005;50.966;11.344;2024-02-26T12:31:34;97985.34;;;8.24;70.90
84775;BME280;75005;50.966;11.344;2024-02-26T12:34:03;97975.25;;;8.35;70.03
84775;BME280;75005;50.966;11.344;2024-02-26T12:36:28;97980.47;;;8.62;69.39
84775;BME280;75005;50.966;11.344;2024-02-26T12:38:54;97983.41;;;8.32;71.06
84775;BME280;75005;50.966;11.344;2024-02-26T12:41:22;97973.56;;;8.08;71.35
84775;BME280;75005;50.966;11.344;2024-02-26T12:43:47;97970.78;;;8.16;71.97
84775;BME280;75005;50.966;11.344;2024-02-26T12:46:12;97979.47;;;8.50;70.27
84775;BME280;75005;50.966;11.344;2024-02-26T12:48:42;97981.25;;;8.56;70.36
84775;BME280;75005;50.966;11.344;2024-02-26T12:51:08;97970.09;;;8.75;69.79
84775;BME280;75005;50.966;11.344;2024-02-26T12:53:35;97993.66;;;8.74;68.43
84775;BME280;75005;50.966;11.344;2024-02-26T12:56:00;97989.03;;;8.49;69.88
84775;BME280;75005;50.966;11.344;2024-02-26T12:58:27;97994.66;;;8.05;71.90